Time;durP1;ratioP1;P1;durP2;ratioP2;P2;SDS_P1;SDS_P2;PMS_P1;PMS_P2;Temp;Humidity;BMP_temperature;BMP_pressure;BME280_temperature;BME280_humidity;BME280_pressure;Samples;Min_cycle;Max_cycle;Signal;HPM_P1;HPM_P2
2021/04/05 00:01:06;;;;;;;115.43;45.03;;;-2.90;90.90;;;;;;5057969;28;20134;-77
2021/04/05 00:03:32;;;;;;;112.10;43.70;;;-2.90;91.60;;;;;;5075168;28;20020;-78
2021/04/05 00:05:58;;;;;;;105.90;42.85;;;-2.90;92.10;;;;;;5057139;28;20024;-78
2021/04/05 00:08:23;;;;;;;99.68;38.45;;;-2.90;92.30;;;;;;5052183;28;20032;-78
2021/04/05 00:10:52;;;;;;;105.55;41.30;;;-2.90;92.00;;;;;;5036700;28;20025;-78
2021/04/05 00:13:25;;;;;;;97.13;39.42;;;-2.90;91.70;;;;;;5054818;28;20032;-77
2021/04/05 00:15:51;;;;;;;102.22;40.67;;;-2.90;91.40;;;;;;5054947;28;20107;-77
2021/04/05 00:18:18;;;;;;;80.20;36.10;;;-2.90;91.60;;;;;;5036950;28;20193;-78
2021/04/05 00:20:56;;;;;;;144.20;53.60;;;-2.90;92.00;;;;;;5036741;28;20025;-77
2021/04/05 00:23:22;;;;;;;140.30;55.15;;;-2.90;92.00;;;;;;5036661;28;20029;-78
2021/04/05 00:25:48;;;;;;;148.07;56.58;;;-3.00;92.20;;;;;;5054670;28;20474;-78
2021/04/05 00:28:14;;;;;;;132.45;51.88;;;-3.00;92.90;;;;;;5036762;28;20033;-79
2021/04/05 00:30:41;;;;;;;118.35;47.53;;;-3.00;94.40;;;;;;5036782;28;20438;-78
2021/04/05 00:33:08;;;;;;;118.68;49.60;;;-3.10;96.20;;;;;;5036740;28;20028;-79
2021/04/05 00:35:36;;;;;;;118.25;49.58;;;-3.10;96.10;;;;;;5036641;28;20108;-78
2021/04/05 00:38:05;;;;;;;126.30;51.92;;;-3.10;96.00;;;;;;5054606;28;20021;-79
2021/04/05 00:41:03;;;;;;;105.00;45.85;;;-3.10;96.00;;;;;;5036291;28;20044;-79
2021/04/05 00:43:29;;;;;;;110.67;46.23;;;-3.10;95.10;;;;;;5047272;28;20172;-78
2021/04/05 00:45:55;;;;;;;107.03;44.05;;;-3.10;94.90;;;;;;5034111;28;20045;-77
2021/04/05 00:48:24;;;;;;;80.97;34.78;;;-3.10;93.90;;;;;;5034219;28;20391;-78
2021/04/05 00:50:53;;;;;;;84.00;36.20;;;-3.10;93.70;;;;;;5033484;28;20076;-78
2021/04/05 00:53:24;;;;;;;93.13;37.53;;;-3.20;93.70;;;;;;5034331;28;20395;-78
2021/04/05 00:55:50;;;;;;;68.30;35.15;;;-3.20;94.00;;;;;;5034142;28;20104;-78
2021/04/05 00:58:17;;;;;;;80.90;34.90;;;-3.20;94.10;;;;;;5016438;28;20124;-78
2021/04/05 01:00:53;;;;;;;92.80;38.25;;;-3.30;94.50;;;;;;5034023;28;20025;-78
2021/04/05 01:03:26;;;;;;;91.60;38.80;;;-3.30;94.00;;;;;;5034044;28;20113;-77
2021/04/05 01:06:16;;;;;;;81.07;38.85;;;-3.30;94.50;;;;;;5034059;28;20021;-78
2021/04/05 01:08:42;;;;;;;99.30;42.10;;;-3.30;94.40;;;;;;5023467;28;20025;-78
2021/04/05 01:11:11;;;;;;;118.90;50.03;;;-3.30;94.10;;;;;;5053871;28;20116;-79
2021/04/05 01:13:37;;;;;;;141.60;58.10;;;-3.30;94.10;;;;;;5055049;28;20108;-79
2021/04/05 01:16:03;;;;;;;127.07;54.07;;;-3.40;94.50;;;;;;5073572;28;20052;-78
2021/04/05 01:18:30;;;;;;;114.00;47.55;;;-3.40;95.10;;;;;;5073595;28;20027;-78
2021/04/05 01:20:56;;;;;;;104.55;42.78;;;-3.40;94.70;;;;;;5039342;28;20076;-78
2021/04/05 01:23:23;;;;;;;77.77;36.00;;;-3.50;95.00;;;;;;5055472;28;20052;-78
2021/04/05 01:25:49;;;;;;;97.43;39.50;;;-3.50;95.20;;;;;;5055325;28;20013;-79
2021/04/05 01:28:15;;;;;;;94.63;37.30;;;-3.50;95.90;;;;;;5073558;28;20506;-78
2021/04/05 01:30:50;;;;;;;90.85;37.15;;;-3.60;95.40;;;;;;5055361;28;20060;-78
2021/04/05 01:33:26;;;;;;;78.00;36.95;;;-3.60;96.00;;;;;;5073564;28;20032;-78
2021/04/05 01:35:57;;;;;;;94.20;36.83;;;-3.60;96.00;;;;;;5073391;28;20413;-78
2021/04/05 01:38:26;;;;;;;85.78;38.40;;;-3.60;95.80;;;;;;5055366;28;20401;-78
2021/04/05 01:41:04;;;;;;;76.10;36.38;;;-3.70;95.90;;;;;;5056126;28;20035;-79
2021/04/05 01:43:29;;;;;;;93.18;34.90;;;-3.70;96.00;;;;;;5055149;28;20027;-78
2021/04/05 01:45:57;;;;;;;78.90;35.93;;;-3.70;96.90;;;;;;5072990;28;20111;-78
2021/04/05 01:48:25;;;;;;;83.43;36.63;;;-3.70;97.40;;;;;;5055521;28;20468;-78
2021/04/05 01:50:55;;;;;;;88.67;36.57;;;-3.80;97.30;;;;;;5055064;28;20025;-79
2021/04/05 01:53:21;;;;;;;82.70;37.20;;;-3.70;97.70;;;;;;5055048;28;20024;-79
2021/04/05 01:55:47;;;;;;;85.20;35.43;;;-3.70;97.80;;;;;;5055081;28;20028;-78
2021/04/05 01:58:17;;;;;;;89.03;38.73;;;-3.70;97.50;;;;;;5054841;28;20024;-79
2021/04/05 02:00:44;;;;;;;82.77;35.23;;;-3.70;97.90;;;;;;5072446;28;20016;-79
2021/04/05 02:03:11;;;;;;;93.73;38.30;;;-3.70;98.10;;;;;;5054985;28;20027;-79
2021/04/05 02:05:42;;;;;;;81.50;36.73;;;-3.70;98.00;;;;;;5054827;28;20032;-78
2021/04/05 02:08:08;;;;;;;89.80;35.60;;;-3.70;98.60;;;;;;5072856;28;20016;-79
2021/04/05 02:10:34;;;;;;;80.00;32.37;;;-3.70;98.20;;;;;;5089960;28;20389;-79
2021/04/05 02:13:01;;;;;;;74.67;33.97;;;-3.70;98.50;;;;;;5093039;28;20028;-79
2021/04/05 02:15:27;;;;;;;74.47;34.28;;;-3.70;98.60;;;;;;5074762;28;20111;-78
2021/04/05 02:17:53;;;;;;;71.23;30.33;;;-3.70;98.20;;;;;;5074200;28;20035;-79
2021/04/05 02:20:19;;;;;;;69.83;31.53;;;-3.70;97.60;;;;;;5074640;28;20020;-79
2021/04/05 02:22:48;;;;;;;71.30;32.20;;;-3.70;98.30;;;;;;5092331;28;20124;-78
2021/04/05 02:25:16;;;;;;;76.97;31.90;;;-3.70;98.70;;;;;;5092677;28;20085;-79
2021/04/05 02:27:46;;;;;;;72.60;30.80;;;-3.70;98.70;;;;;;5092605;28;20034;-79
2021/04/05 02:30:23;;;;;;;74.10;30.97;;;-3.70;99.90;;;;;;5074395;28;20131;-78
2021/04/05 02:33:03;;;;;;;70.77;30.57;;;-3.70;99.90;;;;;;5092695;28;20106;-78
2021/04/05 02:35:32;;;;;;;69.32;31.45;;;-3.70;99.90;;;;;;5084108;28;20043;-79
2021/04/05 02:38:00;;;;;;;64.38;31.05;;;-3.60;99.90;;;;;;5092551;28;20017;-79
2021/04/05 02:40:26;;;;;;;66.37;28.37;;;-3.60;99.90;;;;;;5077631;28;20020;-79
2021/04/05 02:42:53;;;;;;;69.73;29.43;;;-3.60;99.90;;;;;;5074154;28;20110;-78
2021/04/05 02:45:21;;;;;;;71.07;29.57;;;-3.60;99.90;;;;;;5074273;28;20043;-78
2021/04/05 02:47:49;;;;;;;63.57;30.30;;;-3.60;99.90;;;;;;5092312;28;20523;-78
2021/04/05 02:50:15;;;;;;;67.77;31.17;;;-3.60;99.90;;;;;;5092259;28;20504;-78
2021/04/05 02:52:42;;;;;;;67.38;30.35;;;-3.60;99.90;;;;;;5074020;28;20043;-79
2021/04/05 02:55:10;;;;;;;72.37;32.63;;;-3.60;99.90;;;;;;5092258;28;20024;-79
2021/04/05 02:57:37;;;;;;;70.67;29.90;;;-3.60;99.70;;;;;;5092141;28;20024;-78
2021/04/05 03:00:22;;;;;;;87.83;37.97;;;-3.60;99.90;;;;;;5074020;28;20031;-78
2021/04/05 03:02:51;;;;;;;79.35;35.85;;;-3.70;99.30;;;;;;5073994;28;20069;-78
2021/04/05 03:05:19;;;;;;;81.82;33.03;;;-3.80;99.10;;;;;;5091989;28;20020;-78
2021/04/05 03:07:45;;;;;;;76.25;33.10;;;-3.80;98.60;;;;;;5091944;28;20020;-79
2021/04/05 03:10:12;;;;;;;82.27;35.83;;;-3.80;98.60;;;;;;5056834;28;20020;-80
2021/04/05 03:12:40;;;;;;;84.25;39.38;;;-3.90;98.60;;;;;;5071153;28;20056;-79
2021/04/05 03:15:08;;;;;;;91.33;38.13;;;-3.90;98.90;;;;;;5071612;28;20493;-80
2021/04/05 03:17:36;;;;;;;104.33;43.60;;;-4.00;98.90;;;;;;5071529;28;20028;-80
2021/04/05 03:20:11;;;;;;;97.97;42.03;;;-4.00;99.90;;;;;;5053732;28;20028;-79
2021/04/05 03:22:39;;;;;;;104.27;44.60;;;-4.00;99.90;;;;;;5053493;28;20041;-79
2021/04/05 03:25:12;;;;;;;90.27;38.13;;;-4.00;99.30;;;;;;5054492;28;20477;-80
2021/04/05 03:27:38;;;;;;;87.27;39.33;;;-4.10;99.30;;;;;;5091703;28;20043;-78
2021/04/05 03:30:05;;;;;;;84.80;38.47;;;-4.10;98.90;;;;;;5091764;28;20028;-79
2021/04/05 03:32:33;;;;;;;90.73;39.00;;;-4.10;99.90;;;;;;5083484;28;20069;-78
2021/04/05 03:35:02;;;;;;;89.83;39.07;;;-4.10;99.90;;;;;;5091754;28;20024;-78
2021/04/05 03:37:30;;;;;;;93.00;38.73;;;-4.20;99.90;;;;;;5073501;28;20013;-78
2021/04/05 03:39:55;;;;;;;89.37;36.53;;;-4.10;99.90;;;;;;5072532;28;20465;-78
2021/04/05 03:42:36;;;;;;;88.73;37.53;;;-4.10;99.90;;;;;;5091645;28;20060;-79
2021/04/05 03:45:19;;;;;;;80.93;37.47;;;-4.20;99.90;;;;;;5073540;28;20113;-78
2021/04/05 03:48:13;;;;;;;102.07;42.65;;;-4.20;99.90;;;;;;5091602;28;20032;-80
2021/04/05 03:50:46;;;;;;;103.00;44.00;;;-4.20;99.90;;;;;;5073435;28;20119;-78
2021/04/05 03:53:32;;;;;;;88.97;38.03;;;-4.20;99.90;;;;;;5091652;28;20512;-78
2021/04/05 03:56:36;;;;;;;97.37;38.47;;;-4.20;99.90;;;;;;5073430;28;20016;-78
2021/04/05 03:59:06;;;;;;;77.57;32.50;;;-4.20;99.90;;;;;;5064378;28;20024;-78
2021/04/05 04:01:32;;;;;;;68.87;29.07;;;-4.20;99.90;;;;;;5054377;28;20037;-78
2021/04/05 04:04:11;;;;;;;74.50;32.70;;;-4.10;99.90;;;;;;5070978;28;20091;-79
2021/04/05 04:07:16;;;;;;;78.37;32.97;;;-4.20;99.90;;;;;;5053063;28;20032;-80
2021/04/05 04:09:32;;;;;;;75.65;33.63;;;-4.10;99.90;;;;;;5082113;28;20028;-79
2021/04/05 04:11:59;;;;;;;86.70;38.83;;;-4.20;99.90;;;;;;5073315;28;20022;-79
2021/04/05 04:14:25;;;;;;;89.53;40.47;;;-4.20;99.90;;;;;;5091432;28;20103;-79
2021/04/05 04:16:52;;;;;;;94.07;39.90;;;-4.20;99.90;;;;;;5091412;28;20028;-79
2021/04/05 04:19:18;;;;;;;89.93;39.33;;;-4.20;99.90;;;;;;5073060;28;20024;-79
2021/04/05 04:21:48;;;;;;;97.87;40.80;;;-4.20;99.90;;;;;;5073176;28;20090;-80
2021/04/05 04:24:15;;;;;;;91.03;37.63;;;-4.20;99.90;;;;;;5074991;28;20367;-79
2021/04/05 04:26:41;;;;;;;91.70;39.47;;;-4.20;99.90;;;;;;5094961;28;20473;-79
2021/04/05 04:29:14;;;;;;;76.43;34.83;;;-4.20;99.90;;;;;;5094908;28;20103;-80
2021/04/05 04:31:40;;;;;;;84.28;34.22;;;-4.10;99.90;;;;;;5094884;28;20496;-80
2021/04/05 04:34:06;;;;;;;74.20;34.23;;;-4.10;99.90;;;;;;5094924;28;20035;-80
2021/04/05 04:36:32;;;;;;;83.10;34.87;;;-4.00;99.90;;;;;;5092543;28;20020;-79
2021/04/05 04:38:58;;;;;;;83.40;37.57;;;-4.00;99.90;;;;;;5075494;28;20051;-79
2021/04/05 04:41:29;;;;;;;92.00;40.30;;;-4.00;99.90;;;;;;5094675;28;20040;-80
2021/04/05 04:43:59;;;;;;;97.40;42.10;;;-4.00;99.90;;;;;;5076618;28;20422;-79
2021/04/05 04:46:26;;;;;;;91.07;40.87;;;-3.90;99.90;;;;;;5074959;28;20031;-79
2021/04/05 04:48:56;;;;;;;95.00;42.27;;;-3.90;99.90;;;;;;5076394;28;20016;-79
2021/04/05 04:51:22;;;;;;;78.80;35.57;;;-3.90;99.90;;;;;;5094566;28;20023;-80
2021/04/05 04:53:48;;;;;;;80.40;36.27;;;-3.80;99.90;;;;;;5094501;28;20032;-78
2021/04/05 04:56:15;;;;;;;79.07;36.73;;;-3.70;99.90;;;;;;5076364;28;20097;-78
2021/04/05 04:58:44;;;;;;;78.20;35.10;;;-3.70;99.90;;;;;;5076126;28;20028;-78
2021/04/05 05:01:13;;;;;;;70.47;34.20;;;-3.60;99.90;;;;;;5076137;28;20097;-78
2021/04/05 05:03:43;;;;;;;77.00;36.03;;;-3.60;99.90;;;;;;5076465;28;20073;-78
2021/04/05 05:06:12;;;;;;;72.78;36.35;;;-3.50;99.90;;;;;;5092652;28;20024;-78
2021/04/05 05:08:37;;;;;;;90.07;39.97;;;-3.40;99.90;;;;;;5052645;28;20032;-77
2021/04/05 05:11:05;;;;;;;111.63;42.83;;;-3.40;99.90;;;;;;5054037;28;20032;-78
2021/04/05 05:13:30;;;;;;;105.82;45.38;;;-3.30;99.90;;;;;;5062388;28;20031;-79
2021/04/05 05:15:56;;;;;;;81.57;36.47;;;-3.20;99.90;;;;;;5094093;28;20032;-79
2021/04/05 05:18:25;;;;;;;86.43;39.70;;;-3.10;99.90;;;;;;5067464;28;20027;-79
2021/04/05 05:20:52;;;;;;;85.57;38.65;;;-3.00;99.90;;;;;;5055243;28;20059;-78
2021/04/05 05:23:18;;;;;;;83.60;35.85;;;-2.90;99.90;;;;;;5056157;28;20064;-79
2021/04/05 05:25:46;;;;;;;79.13;38.13;;;-2.70;99.90;;;;;;5056628;28;20021;-78
2021/04/05 05:28:14;;;;;;;86.70;41.85;;;-2.60;99.90;;;;;;5070555;28;20050;-78
2021/04/05 05:30:41;;;;;;;108.00;46.17;;;-2.50;99.90;;;;;;5072876;28;20482;-78
2021/04/05 05:33:07;;;;;;;381.70;156.95;;;-2.30;99.90;;;;;;5057736;28;20066;-78
2021/04/05 05:35:34;;;;;;;202.85;84.20;;;-2.10;99.90;;;;;;5072050;28;20017;-78
2021/04/05 05:38:02;;;;;;;172.40;73.25;;;-1.90;99.90;;;;;;5074146;28;20031;-78
2021/04/05 05:40:29;;;;;;;129.07;59.65;;;-1.70;99.90;;;;;;5072648;28;20024;-78
2021/04/05 05:42:58;;;;;;;123.95;58.63;;;-1.50;99.90;;;;;;5073130;28;20472;-78
2021/04/05 05:45:30;;;;;;;137.18;62.15;;;-1.30;99.90;;;;;;5056220;28;20064;-78
2021/04/05 05:47:56;;;;;;;86.75;41.75;;;-1.10;99.90;;;;;;5074198;28;20131;-78
2021/04/05 05:50:52;;;;;;;70.95;36.72;;;-0.90;97.50;;;;;;5056100;28;20040;-78
2021/04/05 05:53:31;;;;;;;116.40;50.28;;;-0.60;96.40;;;;;;5056089;28;20103;-78
2021/04/05 05:55:56;;;;;;;110.30;46.90;;;-0.50;94.80;;;;;;5073952;28;20028;-78
2021/04/05 05:58:34;;;;;;;88.65;43.30;;;-0.30;95.70;;;;;;5055767;28;20078;-79
2021/04/05 06:01:05;;;;;;;61.78;31.58;;;0.00;97.40;;;;;;5073805;28;20115;-77
2021/04/05 06:03:40;;;;;;;47.47;22.60;;;0.10;96.10;;;;;;5073790;28;20086;-78
2021/04/05 06:06:23;;;;;;;34.72;20.00;;;0.40;93.40;;;;;;5079438;28;20035;-76
2021/04/05 06:09:09;;;;;;;30.98;18.75;;;0.60;89.40;;;;;;5073585;28;20093;-77
2021/04/05 06:11:51;;;;;;;29.75;16.60;;;0.80;87.30;;;;;;5062502;28;20162;-78
2021/04/05 06:14:52;;;;;;;31.52;15.13;;;1.20;81.40;;;;;;5073782;28;20017;-76
2021/04/05 06:17:38;;;;;;;23.95;11.65;;;1.50;80.60;;;;;;5070286;28;20021;-75
2021/04/05 06:20:17;;;;;;;19.30;10.48;;;1.80;76.80;;;;;;5069923;28;20024;-75
2021/04/05 06:23:14;;;;;;;19.50;9.77;;;2.10;76.00;;;;;;5070018;28;20037;-75
2021/04/05 06:26:11;;;;;;;17.40;9.48;;;2.40;73.90;;;;;;5072739;28;20031;-73
2021/04/05 06:28:47;;;;;;;13.48;8.73;;;2.70;73.00;;;;;;5055304;28;20104;-74
2021/04/05 06:31:17;;;;;;;11.73;7.63;;;3.00;70.40;;;;;;5055152;28;20028;-74
2021/04/05 06:33:50;;;;;;;10.85;7.30;;;3.20;65.60;;;;;;5055233;28;20111;-74
2021/04/05 06:36:49;;;;;;;15.05;8.13;;;3.40;65.90;;;;;;5073059;28;20024;-74
2021/04/05 06:39:22;;;;;;;11.57;6.47;;;3.60;64.30;;;;;;5055086;28;20028;-74
2021/04/05 06:42:26;;;;;;;9.27;6.45;;;3.90;64.20;;;;;;5073223;28;20047;-74
2021/04/05 06:45:10;;;;;;;12.35;6.90;;;4.00;62.10;;;;;;5055285;28;20028;-75
2021/04/05 06:48:03;;;;;;;11.93;5.90;;;4.30;61.00;;;;;;5072265;28;20410;-75
2021/04/05 06:50:41;;;;;;;9.02;6.63;;;4.50;60.10;;;;;;5072755;28;20025;-74
2021/04/05 06:53:22;;;;;;;12.23;6.15;;;4.70;59.80;;;;;;5081242;28;20043;-75
2021/04/05 06:55:56;;;;;;;8.95;4.97;;;4.90;58.90;;;;;;5087689;28;20032;-75
2021/04/05 06:58:25;;;;;;;8.18;5.80;;;5.10;58.10;;;;;;5086543;28;20477;-74
2021/04/05 07:01:15;;;;;;;8.90;5.78;;;5.20;56.20;;;;;;5060815;28;20093;-75
2021/04/05 07:03:59;;;;;;;12.65;6.60;;;5.40;55.80;;;;;;5054793;28;20078;-75
2021/04/05 07:06:28;;;;;;;8.15;6.03;;;5.50;55.00;;;;;;5072769;28;20029;-75
2021/04/05 07:09:29;;;;;;;8.00;5.25;;;5.60;54.50;;;;;;5054649;28;20032;-75
2021/04/05 07:12:22;;;;;;;9.20;5.97;;;5.80;54.80;;;;;;5053961;28;20383;-74
2021/04/05 07:15:10;;;;;;;6.20;4.70;;;6.10;55.00;;;;;;5059340;28;20548;-75
2021/04/05 07:17:48;;;;;;;7.53;5.07;;;6.10;53.70;;;;;;5076568;28;20032;-75
2021/04/05 07:20:42;;;;;;;9.88;5.07;;;6.20;53.10;;;;;;5052480;28;20047;-76
2021/04/05 07:23:29;;;;;;;8.32;5.50;;;6.30;53.20;;;;;;5052202;28;20537;-76
2021/04/05 07:26:18;;;;;;;11.57;5.28;;;6.40;52.80;;;;;;5051977;28;20020;-76
2021/04/05 07:28:53;;;;;;;11.65;5.30;;;6.70;53.50;;;;;;5052243;28;20041;-77
2021/04/05 07:31:56;;;;;;;8.20;5.63;;;6.70;52.50;;;;;;5052402;28;20026;-74
2021/04/05 07:34:40;;;;;;;6.43;5.30;;;6.80;52.10;;;;;;5043238;28;20025;-75
2021/04/05 07:37:37;;;;;;;8.55;5.35;;;6.90;52.10;;;;;;5051307;28;20154;-76
2021/04/05 07:40:31;;;;;;;10.07;5.93;;;6.90;52.10;;;;;;5041275;28;20028;-76
2021/04/05 07:43:10;;;;;;;9.43;5.57;;;7.10;51.70;;;;;;5048490;28;20378;-77
2021/04/05 07:45:56;;;;;;;14.75;6.38;;;7.40;52.30;;;;;;5056035;28;20020;-77
2021/04/05 07:49:05;;;;;;;10.57;5.80;;;7.50;51.40;;;;;;5054854;28;20033;-77
2021/04/05 07:52:03;;;;;;;9.32;5.70;;;7.70;51.40;;;;;;5071423;28;20401;-76
2021/04/05 07:54:34;;;;;;;11.73;6.15;;;7.80;51.10;;;;;;5069292;28;20029;-77
2021/04/05 07:57:07;;;;;;;12.35;7.47;;;8.00;51.20;;;;;;5061511;28;20017;-77
2021/04/05 07:59:51;;;;;;;17.27;9.18;;;8.10;51.30;;;;;;5067631;28;20036;-75
2021/04/05 08:02:38;;;;;;;16.10;5.47;;;8.20;50.10;;;;;;5069871;28;20032;-76
2021/04/05 08:05:34;;;;;;;25.90;11.07;;;8.40;50.10;;;;;;5066157;28;20027;-76
2021/04/05 08:08:50;;;;;;;10.52;6.50;;;8.50;49.80;;;;;;5067503;28;20041;-76
2021/04/05 08:11:27;;;;;;;9.95;5.55;;;8.70;49.40;;;;;;5076833;28;20040;-76
2021/04/05 08:14:43;;;;;;;8.93;5.28;;;9.00;49.30;;;;;;5068495;28;20041;-76
2021/04/05 08:17:25;;;;;;;10.90;5.28;;;9.20;48.90;;;;;;5026397;28;20044;-77
2021/04/05 08:20:00;;;;;;;14.05;6.93;;;9.40;48.70;;;;;;5033441;28;20065;-76
2021/04/05 08:22:32;;;;;;;17.85;6.45;;;9.50;48.30;;;;;;5061519;28;20070;-76
2021/04/05 08:25:08;;;;;;;16.73;6.82;;;9.20;47.40;;;;;;5070549;28;20032;-76
2021/04/05 08:27:44;;;;;;;18.23;9.40;;;9.10;47.80;;;;;;5065629;28;20029;-76
2021/04/05 08:30:21;;;;;;;15.23;6.53;;;9.00;47.90;;;;;;5072585;28;20087;-76
2021/04/05 08:33:24;;;;;;;21.05;8.85;;;8.90;48.40;;;;;;5055785;28;20428;-78
2021/04/05 08:35:55;;;;;;;30.75;10.55;;;8.90;48.40;;;;;;5074179;28;20020;-77
2021/04/05 08:38:42;;;;;;;42.95;16.80;;;8.70;48.20;;;;;;5073914;28;20393;-76
2021/04/05 08:41:37;;;;;;;24.60;10.38;;;9.00;49.10;;;;;;5055363;28;20394;-75
2021/04/05 08:44:25;;;;;;;54.38;22.52;;;9.00;48.20;;;;;;5054927;28;20127;-77
2021/04/05 08:46:57;;;;;;;55.80;22.27;;;9.10;48.00;;;;;;5052755;28;20051;-77
2021/04/05 08:49:25;;;;;;;28.55;14.45;;;9.30;48.00;;;;;;5083982;28;20021;-76
2021/04/05 08:51:54;;;;;;;21.95;9.07;;;9.60;48.30;;;;;;5073399;28;20707;-76
2021/04/05 08:54:25;;;;;;;48.70;21.83;;;9.50;47.60;;;;;;5074235;28;20393;-76
2021/04/05 08:56:57;;;;;;;74.60;33.60;;;9.50;47.50;;;;;;5066623;28;20026;-76
2021/04/05 08:59:40;;;;;;;42.40;12.80;;;9.60;47.30;;;;;;5065251;28;20024;-76
2021/04/05 09:02:20;;;;;;;19.30;7.25;;;9.80;47.50;;;;;;5054636;28;20041;-76
2021/04/05 09:04:52;;;;;;;14.45;5.90;;;9.80;47.00;;;;;;5057050;28;20115;-76
2021/04/05 09:07:35;;;;;;;22.98;7.03;;;9.90;47.00;;;;;;5093820;28;20016;-76
2021/04/05 09:10:06;;;;;;;16.27;5.95;;;10.10;47.30;;;;;;5091526;28;20024;-76
2021/04/05 09:12:36;;;;;;;24.77;7.32;;;10.20;46.70;;;;;;5076333;28;20078;-76
2021/04/05 09:15:26;;;;;;;13.23;6.28;;;10.40;46.70;;;;;;5095018;28;20023;-76
2021/04/05 09:18:28;;;;;;;15.60;7.70;;;10.60;46.40;;;;;;5075691;28;20028;-77
2021/04/05 09:21:12;;;;;;;34.17;14.38;;;10.60;45.80;;;;;;5094685;28;20124;-76
2021/04/05 09:24:03;;;;;;;24.33;9.50;;;10.60;45.70;;;;;;5075709;28;20012;-76
2021/04/05 09:26:53;;;;;;;16.90;7.00;;;11.00;46.30;;;;;;5099148;28;20106;-76
2021/04/05 09:29:55;;;;;;;29.35;9.90;;;11.00;44.70;;;;;;5092883;28;20048;-76
2021/04/05 09:32:30;;;;;;;21.60;8.73;;;11.10;44.40;;;;;;5062364;28;20075;-76
2021/04/05 09:35:01;;;;;;;19.55;6.57;;;11.40;45.10;;;;;;5057212;28;20028;-76
2021/04/05 09:37:55;;;;;;;13.40;5.70;;;11.30;43.50;;;;;;5055797;28;20025;-74
2021/04/05 09:40:34;;;;;;;;;;;11.40;43.10;;;;;;5069193;28;20470;-73
2021/04/05 09:43:32;;;;;;;20.65;5.40;;;11.40;42.60;;;;;;5067456;28;20392;-74
2021/04/05 09:46:06;;;;;;;16.92;5.53;;;11.60;43.20;;;;;;5048033;28;20036;-75
2021/04/05 09:49:16;;;;;;;18.40;6.82;;;11.70;43.00;;;;;;5050642;28;20033;-75
2021/04/05 09:52:16;;;;;;;19.40;6.45;;;11.90;42.40;;;;;;5061372;28;20056;-74
2021/04/05 09:55:00;;;;;;;17.98;6.57;;;12.00;42.50;;;;;;5069152;28;20544;-74
2021/04/05 09:57:33;;;;;;;13.80;5.30;;;12.00;41.80;;;;;;5069435;28;20029;-75
2021/04/05 10:00:01;;;;;;;17.08;7.13;;;12.00;41.50;;;;;;5053729;28;20024;-74
2021/04/05 10:02:34;;;;;;;22.15;5.68;;;11.80;41.10;;;;;;5052344;28;20056;-74
2021/04/05 10:05:02;;;;;;;11.30;4.55;;;12.10;42.10;;;;;;5054917;28;20016;-74
2021/04/05 10:07:28;;;;;;;11.30;4.93;;;12.20;42.40;;;;;;5075474;28;20024;-75
2021/04/05 10:09:56;;;;;;;8.02;3.95;;;12.40;41.70;;;;;;5053313;28;20124;-74
2021/04/05 10:12:24;;;;;;;19.40;5.68;;;12.70;41.20;;;;;;5068004;28;20066;-74
2021/04/05 10:14:51;;;;;;;9.27;4.75;;;12.60;39.60;;;;;;5052735;28;20383;-75
2021/04/05 10:17:22;;;;;;;15.63;5.43;;;12.60;40.10;;;;;;5066077;28;20474;-75
2021/04/05 10:19:54;;;;;;;20.48;5.78;;;12.40;39.80;;;;;;5049447;28;20383;-75
2021/04/05 10:22:21;;;;;;;15.13;5.32;;;12.60;40.70;;;;;;5067126;28;20037;-74
2021/04/05 10:24:51;;;;;;;12.55;4.32;;;12.70;40.90;;;;;;5049938;28;20024;-73
2021/04/05 10:27:24;;;;;;;22.58;5.93;;;12.90;40.80;;;;;;5068552;28;20058;-74
2021/04/05 10:29:53;;;;;;;27.20;7.40;;;13.10;39.50;;;;;;5065495;28;20394;-74
2021/04/05 10:32:21;;;;;;;25.63;6.47;;;13.30;40.20;;;;;;5069152;28;20393;-74
2021/04/05 10:34:52;;;;;;;21.08;6.53;;;13.20;39.10;;;;;;5070074;28;20070;-74
2021/04/05 10:37:22;;;;;;;16.75;6.55;;;13.40;39.30;;;;;;5050893;28;20028;-74
2021/04/05 10:39:49;;;;;;;26.30;6.45;;;13.20;38.70;;;;;;5045866;28;20021;-74
2021/04/05 10:42:38;;;;;;;21.42;6.50;;;13.20;39.10;;;;;;5064485;28;20044;-75
2021/04/05 10:45:10;;;;;;;25.98;5.78;;;12.90;39.10;;;;;;5068579;28;20094;-73
2021/04/05 10:48:01;;;;;;;33.70;7.85;;;12.60;38.80;;;;;;5061964;28;20422;-74
2021/04/05 10:50:32;;;;;;;21.85;5.68;;;12.40;39.20;;;;;;5047087;28;20119;-73
2021/04/05 10:53:13;;;;;;;26.95;5.93;;;12.20;40.10;;;;;;5056728;28;20023;-74
2021/04/05 10:55:45;;;;;;;15.88;5.28;;;11.90;40.40;;;;;;5048645;28;20013;-74
2021/04/05 10:58:16;;;;;;;15.82;5.70;;;11.90;41.10;;;;;;5055118;28;20025;-73
2021/04/05 11:00:46;;;;;;;13.40;4.70;;;12.00;41.40;;;;;;5052073;28;20045;-73
2021/04/05 11:03:17;;;;;;;17.98;5.05;;;12.00;41.50;;;;;;5050923;28;20025;-74
2021/04/05 11:05:46;;;;;;;14.10;5.50;;;12.00;41.30;;;;;;5039325;28;20029;-74
2021/04/05 11:08:27;;;;;;;29.85;7.63;;;11.90;41.00;;;;;;5050811;28;20013;-73
2021/04/05 11:11:03;;;;;;;18.83;5.20;;;11.90;41.00;;;;;;5056815;28;20386;-73
2021/04/05 11:13:29;;;;;;;16.95;4.45;;;12.00;41.50;;;;;;5068387;28;20466;-74
2021/04/05 11:15:57;;;;;;;19.15;7.05;;;11.90;41.30;;;;;;5068771;28;20242;-73
2021/04/05 11:18:25;;;;;;;12.77;4.95;;;11.90;41.50;;;;;;5070644;28;20486;-73
2021/04/05 11:20:56;;;;;;;15.65;5.97;;;11.80;41.50;;;;;;5068304;28;20028;-73
2021/04/05 11:23:23;;;;;;;25.27;9.07;;;11.80;41.50;;;;;;5052217;28;20044;-72
2021/04/05 11:25:52;;;;;;;23.63;8.77;;;11.70;41.80;;;;;;5052640;28;20047;-75
2021/04/05 11:28:27;;;;;;;26.60;11.00;;;11.60;41.90;;;;;;5052281;28;20017;-76
2021/04/05 11:31:02;;;;;;;23.20;8.82;;;11.50;41.60;;;;;;5066111;28;20033;-75
2021/04/05 11:33:31;;;;;;;17.40;6.53;;;11.50;41.80;;;;;;5070798;28;20376;-76
2021/04/05 11:35:57;;;;;;;9.82;5.05;;;11.60;41.60;;;;;;5071720;28;20444;-75
2021/04/05 11:38:24;;;;;;;15.85;4.45;;;11.50;42.00;;;;;;5070736;28;20097;-78
2021/04/05 11:40:58;;;;;;;9.98;4.40;;;11.60;42.00;;;;;;5054711;28;20041;-76
2021/04/05 11:43:29;;;;;;;9.73;4.40;;;11.60;42.20;;;;;;5056461;28;20565;-75
2021/04/05 11:46:04;;;;;;;9.30;4.55;;;11.60;42.20;;;;;;5055359;28;20027;-77
2021/04/05 11:48:30;;;;;;;15.07;5.95;;;11.60;42.30;;;;;;5047719;28;20057;-75
2021/04/05 11:50:56;;;;;;;15.63;5.22;;;11.70;42.50;;;;;;5075146;28;20508;-74
2021/04/05 11:53:50;;;;;;;14.70;5.35;;;11.80;42.60;;;;;;5074090;28;20024;-74
2021/04/05 11:56:15;;;;;;;14.23;5.03;;;11.90;42.70;;;;;;5071888;28;20021;-74
2021/04/05 11:59:04;;;;;;;10.35;4.82;;;11.90;42.20;;;;;;5075762;28;20436;-75
2021/04/05 12:01:36;;;;;;;16.33;5.97;;;12.00;42.10;;;;;;5073619;28;20082;-74
2021/04/05 12:04:22;;;;;;;10.40;5.20;;;12.10;42.10;;;;;;5075437;28;20386;-74
2021/04/05 12:07:07;;;;;;;11.50;4.47;;;12.40;42.00;;;;;;5068605;28;20028;-75
2021/04/05 12:09:47;;;;;;;17.38;5.70;;;12.60;41.40;;;;;;5073242;28;20104;-74
2021/04/05 12:12:21;;;;;;;12.45;5.72;;;12.60;40.90;;;;;;5071409;28;20071;-75
2021/04/05 12:14:54;;;;;;;15.43;6.63;;;12.60;41.20;;;;;;5091201;28;20121;-76
2021/04/05 12:17:22;;;;;;;9.75;4.18;;;12.50;41.10;;;;;;5092181;28;20024;-75
2021/04/05 12:19:51;;;;;;;9.13;5.50;;;12.40;41.40;;;;;;5055908;28;20097;-75
2021/04/05 12:22:24;;;;;;;9.93;4.50;;;12.30;41.50;;;;;;5070713;28;20028;-74
2021/04/05 12:24:51;;;;;;;15.27;5.50;;;12.40;42.70;;;;;;5057350;28;20016;-75
2021/04/05 12:27:18;;;;;;;9.93;4.88;;;12.70;42.40;;;;;;5067671;28;20032;-75
2021/04/05 12:29:45;;;;;;;7.68;4.53;;;12.90;42.20;;;;;;5058436;28;20029;-76
2021/04/05 12:32:19;;;;;;;6.50;4.32;;;13.10;41.70;;;;;;5074414;28;20066;-76
2021/04/05 12:34:52;;;;;;;9.23;5.03;;;13.30;41.00;;;;;;5067083;28;20036;-76
2021/04/05 12:37:21;;;;;;;7.80;3.97;;;13.20;40.10;;;;;;5056936;28;20012;-76
2021/04/05 12:39:51;;;;;;;7.20;3.97;;;13.30;39.80;;;;;;5068667;28;20017;-76
2021/04/05 12:42:19;;;;;;;7.82;4.28;;;13.20;38.30;;;;;;5073726;28;20505;-76
2021/04/05 12:44:51;;;;;;;9.90;3.75;;;13.10;37.30;;;;;;5071036;28;20092;-76
2021/04/05 12:47:18;;;;;;;;;;;13.10;37.40;;;;;;5059545;28;20017;-76
2021/04/05 12:49:45;;;;;;;8.45;4.57;;;13.10;37.30;;;;;;5056703;28;19959;-76
2021/04/05 12:52:17;;;;;;;6.90;3.65;;;12.90;36.60;;;;;;5085888;28;20355;-76
2021/04/05 12:54:48;;;;;;;8.40;5.18;;;12.90;36.40;;;;;;5065392;28;20488;-75
2021/04/05 12:57:15;;;;;;;10.95;6.25;;;13.00;36.70;;;;;;5084507;28;20067;-76
2021/04/05 12:59:42;;;;;;;5.88;4.13;;;13.00;36.60;;;;;;5063966;28;20035;-76
2021/04/05 13:02:10;;;;;;;15.63;5.10;;;12.90;37.00;;;;;;5069933;28;20552;-76
2021/04/05 13:04:42;;;;;;;13.48;4.90;;;13.00;37.20;;;;;;5075723;28;20053;-76
2021/04/05 13:07:16;;;;;;;12.45;5.20;;;13.10;37.60;;;;;;5072122;28;20021;-76
2021/04/05 13:09:49;;;;;;;8.98;4.53;;;13.00;37.10;;;;;;5055486;28;20039;-76
2021/04/05 13:12:18;;;;;;;15.73;4.68;;;12.80;37.10;;;;;;5076235;28;20055;-76